Time;durP1;ratioP1;P1;durP2;ratioP2;P2;SDS_P1;SDS_P2;PMS_P1;PMS_P2;Temp;Humidity;BMP_temperature;BMP_pressure;BME280_temperature;BME280_humidity;BME280_pressure;Samples;Min_cycle;Max_cycle;Signal;HPM_P1;HPM_P2
2021/09/19 00:00:57;;;;;;;;;;;16.70;99.90;;;;;;4958359;28;20102;-78
2021/09/19 00:03:23;;;;;;;12.93;2.30;;;16.70;99.90;;;;;;4957640;29;19932;-78
2021/09/19 00:05:48;;;;;;;;;;;16.60;99.90;;;;;;4958121;29;20561;-78
2021/09/19 00:08:14;;;;;;;9.70;2.45;;;16.50;99.90;;;;;;4957600;29;20378;-78
2021/09/19 00:10:41;;;;;;;;;;;16.50;99.90;;;;;;4940687;29;20031;-78
2021/09/19 00:13:06;;;;;;;17.42;2.80;;;16.60;99.90;;;;;;4957439;28;20290;-77
2021/09/19 00:15:32;;;;;;;;;;;16.80;99.90;;;;;;4957822;28;20029;-78
2021/09/19 00:17:58;;;;;;;7.13;2.35;;;16.60;99.90;;;;;;4957455;28;19910;-78
2021/09/19 00:20:24;;;;;;;10.18;2.10;;;16.50;99.90;;;;;;4939937;29;20027;-78
2021/09/19 00:22:50;;;;;;;;;;;16.80;99.90;;;;;;4957738;29;20437;-78
2021/09/19 00:25:16;;;;;;;7.90;2.10;;;16.80;99.90;;;;;;4957293;29;19934;-78
2021/09/19 00:27:41;;;;;;;;;;;16.90;99.90;;;;;;4957614;29;20106;-78
2021/09/19 00:30:09;;;;;;;11.60;2.40;;;16.90;99.90;;;;;;4957192;29;19906;-78
2021/09/19 00:32:35;;;;;;;9.02;2.25;;;16.80;99.90;;;;;;4939799;29;20031;-78
2021/09/19 00:35:04;;;;;;;9.60;2.53;;;16.90;99.90;;;;;;4957094;29;20023;-78
2021/09/19 00:37:30;;;;;;;10.85;2.55;;;16.90;99.90;;;;;;4957013;29;20030;-78
2021/09/19 00:39:56;;;;;;;8.05;2.30;;;16.80;99.90;;;;;;4957225;28;20023;-78
2021/09/19 00:42:22;;;;;;;10.73;2.80;;;16.90;99.90;;;;;;4957185;29;20436;-78
2021/09/19 00:44:55;;;;;;;;;;;16.70;99.90;;;;;;4957322;29;20098;-78
2021/09/19 00:47:20;;;;;;;14.05;2.78;;;16.90;99.90;;;;;;4939471;29;19907;-78
2021/09/19 00:49:46;;;;;;;;;;;17.10;99.90;;;;;;4957210;28;20503;-78
2021/09/19 00:52:12;;;;;;;12.48;2.90;;;17.00;99.90;;;;;;4956782;29;19914;-78
2021/09/19 00:54:39;;;;;;;;;;;16.90;99.90;;;;;;4957303;28;20032;-78
2021/09/19 00:57:08;;;;;;;11.13;2.72;;;17.10;99.90;;;;;;4955295;28;19981;-78
2021/09/19 00:59:37;;;;;;;12.60;3.45;;;17.30;99.90;;;;;;4939186;29;20567;-78
2021/09/19 01:02:03;;;;;;;13.48;3.33;;;17.30;99.90;;;;;;4939360;29;20043;-78
2021/09/19 01:04:28;;;;;;;;;;;17.10;99.90;;;;;;4957355;29;20027;-78
2021/09/19 01:06:54;;;;;;;13.85;3.90;;;17.00;99.90;;;;;;4956481;28;19906;-78
2021/09/19 01:09:21;;;;;;;;;;;17.00;99.90;;;;;;4956874;28;20050;-78
2021/09/19 01:11:47;;;;;;;13.98;3.78;;;17.00;99.90;;;;;;4956572;29;19914;-78
2021/09/19 01:14:15;;;;;;;15.55;3.92;;;17.20;99.90;;;;;;4939000;29;20031;-78
2021/09/19 01:16:42;;;;;;;12.88;2.92;;;17.40;99.90;;;;;;4939071;29;20031;-78
2021/09/19 01:19:15;;;;;;;13.10;3.28;;;17.40;99.90;;;;;;4956311;29;20111;-78
2021/09/19 01:21:41;;;;;;;11.32;3.30;;;17.40;99.90;;;;;;4938791;29;20027;-78
2021/09/19 01:24:06;;;;;;;;;;;17.30;99.90;;;;;;4956601;28;20488;-78
2021/09/19 01:26:33;;;;;;;14.38;4.20;;;17.20;99.90;;;;;;4956388;28;19989;-78
2021/09/19 01:28:59;;;;;;;10.85;4.20;;;17.10;99.90;;;;;;4956107;28;20400;-78
2021/09/19 01:31:26;;;;;;;15.20;4.80;;;17.10;99.90;;;;;;4955980;28;20015;-78
2021/09/19 01:33:53;;;;;;;12.68;4.70;;;16.70;99.90;;;;;;4955964;29;20369;-78
2021/09/19 01:36:20;;;;;;;11.65;3.78;;;16.60;99.90;;;;;;4955950;29;20020;-78
2021/09/19 01:38:47;;;;;;;14.27;4.85;;;16.60;99.90;;;;;;4955902;28;20035;-78
2021/09/19 01:41:20;;;;;;;13.65;4.15;;;16.70;99.90;;;;;;4955880;28;20030;-78
2021/09/19 01:43:46;;;;;;;12.55;5.20;;;16.70;99.90;;;;;;4955825;28;20023;-78
2021/09/19 01:46:12;;;;;;;18.92;6.93;;;17.00;99.90;;;;;;4955917;28;20031;-78
2021/09/19 01:48:39;;;;;;;;;;;17.20;99.90;;;;;;4956170;28;20039;-78
2021/09/19 01:51:06;;;;;;;15.30;5.25;;;17.40;99.90;;;;;;4955774;29;20286;-78
2021/09/19 01:53:33;;;;;;;15.77;5.82;;;17.50;99.90;;;;;;4955731;28;20074;-78
2021/09/19 01:55:59;;;;;;;20.35;5.70;;;17.50;99.90;;;;;;4955576;29;20027;-78
2021/09/19 01:58:25;;;;;;;13.88;4.82;;;17.50;99.90;;;;;;4955415;28;20058;-78
2021/09/19 02:00:56;;;;;;;10.88;4.43;;;17.60;99.90;;;;;;4955555;29;20019;-78
2021/09/19 02:03:22;;;;;;;10.88;4.07;;;17.60;99.90;;;;;;4955540;29;20027;-78
2021/09/19 02:05:47;;;;;;;8.73;3.50;;;17.70;99.90;;;;;;4955504;29;20087;-78
2021/09/19 02:08:13;;;;;;;;;;;17.70;99.90;;;;;;4938587;29;20031;-78
2021/09/19 02:10:39;;;;;;;7.95;2.40;;;17.80;99.90;;;;;;4955492;29;19910;-78
2021/09/19 02:13:04;;;;;;;;;;;17.80;99.90;;;;;;4955783;29;20031;-78
2021/09/19 02:15:30;;;;;;;7.88;2.70;;;17.80;99.90;;;;;;4955412;28;19907;-78
2021/09/19 02:17:56;;;;;;;;;;;17.70;99.90;;;;;;4956045;29;20053;-78
2021/09/19 02:20:22;;;;;;;5.28;1.80;;;17.80;99.90;;;;;;4955369;29;19958;-78
2021/09/19 02:22:47;;;;;;;;;;;17.90;99.90;;;;;;4938436;29;20174;-78
2021/09/19 02:25:13;;;;;;;7.10;1.92;;;17.80;99.90;;;;;;4955775;28;19917;-78
2021/09/19 02:27:40;;;;;;;;;;;17.80;99.90;;;;;;4938386;29;20027;-77
2021/09/19 02:30:10;;;;;;;6.95;2.00;;;17.80;99.90;;;;;;4937973;29;19906;-78
2021/09/19 02:32:37;;;;;;;6.28;1.80;;;17.80;99.90;;;;;;4955234;29;20479;-78
2021/09/19 02:35:04;;;;;;;8.15;2.25;;;17.70;99.90;;;;;;4955145;29;20027;-78
2021/09/19 02:37:30;;;;;;;6.22;2.13;;;17.70;99.90;;;;;;4955515;29;20074;-78
2021/09/19 02:39:56;;;;;;;;;;;17.70;99.90;;;;;;4955574;29;20019;-78
2021/09/19 02:42:22;;;;;;;5.20;1.80;;;17.70;99.90;;;;;;4955407;28;19913;-78
2021/09/19 02:44:48;;;;;;;6.32;1.50;;;17.80;99.90;;;;;;4959151;29;20031;-78
2021/09/19 02:47:14;;;;;;;5.22;1.50;;;17.70;99.90;;;;;;4957843;29;20023;-78
2021/09/19 02:49:40;;;;;;;;;;;17.80;99.90;;;;;;4959461;29;20050;-78
2021/09/19 02:52:06;;;;;;;6.60;1.50;;;17.80;99.90;;;;;;4959176;29;20371;-78
2021/09/19 02:54:31;;;;;;;;;;;17.70;99.90;;;;;;4941916;29;20024;-78
2021/09/19 02:56:57;;;;;;;7.43;1.65;;;17.70;99.90;;;;;;4958725;28;19906;-78
2021/09/19 02:59:23;;;;;;;;;;;17.70;99.90;;;;;;4959701;29;20035;-78
2021/09/19 03:01:48;;;;;;;5.82;1.33;;;17.70;99.90;;;;;;4958831;29;19906;-78
2021/09/19 03:04:14;;;;;;;;;;;17.70;99.90;;;;;;4959203;28;20455;-78
2021/09/19 03:06:40;;;;;;;6.63;1.42;;;17.70;99.90;;;;;;4958788;28;19907;-78
2021/09/19 03:09:05;;;;;;;;;;;17.60;99.90;;;;;;4959088;29;20027;-78
2021/09/19 03:11:31;;;;;;;5.05;1.50;;;17.60;99.90;;;;;;4958876;29;19945;-78
2021/09/19 03:13:57;;;;;;;;;;;17.70;99.90;;;;;;4959210;28;20023;-78
2021/09/19 03:16:23;;;;;;;4.95;1.20;;;17.70;99.90;;;;;;4941278;29;19917;-78
2021/09/19 03:18:48;;;;;;;;;;;17.70;99.90;;;;;;4958866;28;20024;-78
2021/09/19 03:21:14;;;;;;;6.10;1.90;;;17.70;99.90;;;;;;4958691;28;19912;-78
2021/09/19 03:23:40;;;;;;;;;;;17.80;99.90;;;;;;4941573;29;20381;-78
2021/09/19 03:26:06;;;;;;;7.90;1.55;;;17.90;99.90;;;;;;4958402;29;20263;-78
2021/09/19 03:28:32;;;;;;;;;;;17.90;99.90;;;;;;4941477;29;20035;-78
2021/09/19 03:30:58;;;;;;;6.25;1.42;;;17.70;99.90;;;;;;4958258;28;20363;-78
2021/09/19 03:33:24;;;;;;;;;;;17.60;99.90;;;;;;4958624;29;20030;-77
2021/09/19 03:35:49;;;;;;;6.20;1.30;;;17.70;99.90;;;;;;4958455;28;19973;-78
2021/09/19 03:38:15;;;;;;;;;;;17.60;99.90;;;;;;4958573;29;20034;-77
2021/09/19 03:40:42;;;;;;;6.95;1.88;;;17.60;99.90;;;;;;4958144;29;19988;-78
2021/09/19 03:43:07;;;;;;;7.10;1.70;;;17.60;99.90;;;;;;4958017;28;20030;-78
2021/09/19 03:45:33;;;;;;;;;;;17.60;99.90;;;;;;4958395;28;20039;-78
2021/09/19 03:48:07;;;;;;;6.18;1.55;;;17.60;99.90;;;;;;4958303;29;19949;-78
2021/09/19 03:50:34;;;;;;;11.57;2.25;;;17.60;99.90;;;;;;4958023;29;20054;-78
2021/09/19 03:52:59;;;;;;;8.52;2.10;;;17.60;99.90;;;;;;4957758;29;20106;-78
2021/09/19 03:55:25;;;;;;;;;;;17.70;99.90;;;;;;4956818;28;20107;-78
2021/09/19 03:57:51;;;;;;;7.30;1.50;;;17.80;99.90;;;;;;4957751;28;19969;-78
2021/09/19 04:00:17;;;;;;;;;;;17.80;99.90;;;;;;4958398;28;20086;-78
2021/09/19 04:02:43;;;;;;;10.48;1.98;;;17.90;99.90;;;;;;4957753;28;19910;-78
2021/09/19 04:05:09;;;;;;;;;;;17.80;99.90;;;;;;4958088;29;20027;-78
2021/09/19 04:07:35;;;;;;;7.97;1.92;;;17.80;99.90;;;;;;4957691;28;20341;-78
2021/09/19 04:10:02;;;;;;;10.25;2.28;;;17.80;99.90;;;;;;4957588;28;20115;-78
2021/09/19 04:12:27;;;;;;;14.75;2.95;;;17.60;99.90;;;;;;4957551;28;20019;-78
2021/09/19 04:14:53;;;;;;;;;;;17.50;99.90;;;;;;4957889;28;20034;-78
2021/09/19 04:17:19;;;;;;;16.25;2.70;;;17.60;99.90;;;;;;4957435;28;20279;-78
2021/09/19 04:19:44;;;;;;;;;;;17.60;99.90;;;;;;4957777;28;20074;-78
2021/09/19 04:22:10;;;;;;;12.80;2.50;;;17.40;99.90;;;;;;4957375;29;19907;-78
2021/09/19 04:24:36;;;;;;;;;;;17.30;99.90;;;;;;4957742;28;20117;-78
2021/09/19 04:27:02;;;;;;;13.50;2.80;;;17.30;99.90;;;;;;4957412;28;19976;-78
2021/09/19 04:29:27;;;;;;;;;;;17.20;99.90;;;;;;4940427;29;20419;-78
2021/09/19 04:31:53;;;;;;;11.63;2.42;;;17.20;99.90;;;;;;4957618;29;20375;-78
2021/09/19 04:34:18;;;;;;;;;;;17.30;99.90;;;;;;4957495;28;20054;-78
2021/09/19 04:36:44;;;;;;;12.65;2.20;;;17.30;99.90;;;;;;4957135;28;19993;-78
2021/09/19 04:39:10;;;;;;;;;;;17.20;99.90;;;;;;4957487;29;20026;-78
2021/09/19 04:41:36;;;;;;;14.98;2.40;;;17.10;99.90;;;;;;4957040;28;19910;-78
2021/09/19 04:44:01;;;;;;;;;;;17.00;99.90;;;;;;4957390;28;20032;-78
2021/09/19 04:46:27;;;;;;;12.20;2.17;;;17.00;99.90;;;;;;4956927;28;19957;-78
2021/09/19 04:48:55;;;;;;;;;;;17.10;99.90;;;;;;4940024;29;20035;-78
2021/09/19 04:51:21;;;;;;;8.70;2.13;;;17.10;99.90;;;;;;4956855;28;19997;-78
2021/09/19 04:53:47;;;;;;;13.88;2.30;;;17.10;99.90;;;;;;4956985;29;20118;-78
2021/09/19 04:56:13;;;;;;;;;;;17.00;99.90;;;;;;4957126;28;20607;-78
2021/09/19 04:58:39;;;;;;;11.82;2.30;;;16.90;99.90;;;;;;4956355;29;19918;-77
2021/09/19 05:01:05;;;;;;;13.43;2.33;;;16.90;99.90;;;;;;4956637;29;20027;-78
2021/09/19 05:03:31;;;;;;;;;;;17.00;99.90;;;;;;4957128;29;20035;-80
2021/09/19 05:05:57;;;;;;;11.75;2.05;;;16.90;99.90;;;;;;4956172;28;19906;-78
2021/09/19 05:08:22;;;;;;;;;;;16.90;99.90;;;;;;4956907;29;20038;-78
2021/09/19 05:10:48;;;;;;;11.02;2.17;;;16.80;99.90;;;;;;4956484;28;19907;-78
2021/09/19 05:13:14;;;;;;;;;;;16.90;99.90;;;;;;4956863;28;20026;-78
2021/09/19 05:15:40;;;;;;;12.38;1.90;;;16.90;99.90;;;;;;4956414;28;19907;-78
2021/09/19 05:18:05;;;;;;;;;;;16.90;99.90;;;;;;4956781;29;20431;-78
2021/09/19 05:20:31;;;;;;;11.27;2.28;;;16.90;99.90;;;;;;4956506;28;19949;-78
2021/09/19 05:22:57;;;;;;;;;;;16.90;99.90;;;;;;4956688;29;20023;-78
2021/09/19 05:25:23;;;;;;;9.55;1.70;;;16.90;99.90;;;;;;4956420;29;19918;-78
2021/09/19 05:27:50;;;;;;;;;;;16.90;99.90;;;;;;4939277;29;20034;-78
2021/09/19 05:30:17;;;;;;;9.48;2.00;;;16.90;99.90;;;;;;4956073;28;19958;-78
2021/09/19 05:32:42;;;;;;;9.93;1.75;;;16.80;99.90;;;;;;4956146;28;20432;-78
2021/09/19 05:35:08;;;;;;;;;;;16.80;99.90;;;;;;4956400;28;20065;-78
2021/09/19 05:37:34;;;;;;;11.43;1.85;;;16.90;99.90;;;;;;4955998;29;19906;-78
2021/09/19 05:40:00;;;;;;;;;;;16.80;99.90;;;;;;4956846;29;20027;-78
2021/09/19 05:42:26;;;;;;;11.23;2.20;;;16.70;99.90;;;;;;4956283;28;19913;-78
2021/09/19 05:44:51;;;;;;;;;;;16.80;99.90;;;;;;4956326;29;20023;-78
2021/09/19 05:47:17;;;;;;;10.93;1.80;;;16.80;99.90;;;;;;4955849;28;19906;-78
2021/09/19 05:49:43;;;;;;;;;;;16.80;99.90;;;;;;4956304;29;20023;-78
2021/09/19 05:52:08;;;;;;;11.60;2.10;;;16.80;99.90;;;;;;4955786;29;19907;-78
2021/09/19 05:54:34;;;;;;;;;;;16.90;99.90;;;;;;4955956;29;20042;-78
2021/09/19 05:56:59;;;;;;;9.43;1.77;;;16.90;99.90;;;;;;4954145;28;19906;-78
2021/09/19 05:59:25;;;;;;;;;;;16.80;99.90;;;;;;4938596;29;20027;-78
2021/09/19 06:01:52;;;;;;;8.60;1.90;;;16.80;99.90;;;;;;4955793;28;19910;-78
2021/09/19 06:04:18;;;;;;;13.88;2.20;;;16.90;99.90;;;;;;4955574;28;20029;-78
2021/09/19 06:06:44;;;;;;;8.02;1.80;;;16.90;99.90;;;;;;4955918;29;20023;-78
2021/09/19 06:09:09;;;;;;;;;;;17.00;99.90;;;;;;4955937;28;20484;-78
2021/09/19 06:11:35;;;;;;;13.18;1.90;;;16.80;99.90;;;;;;4955702;28;19917;-78
2021/09/19 06:14:01;;;;;;;;;;;16.70;99.90;;;;;;4955857;28;20031;-78
2021/09/19 06:16:26;;;;;;;7.30;1.83;;;16.80;99.90;;;;;;4955424;29;19913;-78
2021/09/19 06:18:52;;;;;;;;;;;16.80;99.90;;;;;;4955073;28;20027;-78
2021/09/19 06:21:18;;;;;;;14.10;2.30;;;16.90;99.90;;;;;;4955700;29;19906;-78
2021/09/19 06:23:43;;;;;;;;;;;17.10;99.90;;;;;;4955708;28;20023;-78
2021/09/19 06:26:09;;;;;;;12.73;2.10;;;17.00;99.90;;;;;;4955335;29;19907;-78
2021/09/19 06:28:35;;;;;;;;;;;16.90;99.90;;;;;;4955619;29;20475;-78
2021/09/19 06:31:01;;;;;;;11.65;2.00;;;16.90;99.90;;;;;;4955252;29;20403;-78
2021/09/19 06:33:27;;;;;;;;;;;16.80;99.90;;;;;;4955771;29;20055;-78
2021/09/19 06:35:53;;;;;;;12.45;2.00;;;17.00;99.90;;;;;;4955198;28;19910;-78
2021/09/19 06:38:19;;;;;;;10.25;1.95;;;17.00;99.90;;;;;;4937946;29;20110;-78
2021/09/19 06:40:45;;;;;;;;;;;17.10;99.90;;;;;;4955613;29;20135;-77
2021/09/19 06:43:10;;;;;;;13.70;2.00;;;17.10;99.90;;;;;;4955167;29;19906;-78
2021/09/19 06:45:36;;;;;;;;;;;17.10;99.90;;;;;;4955589;29;20499;-78
2021/09/19 06:48:02;;;;;;;19.50;2.38;;;17.10;99.90;;;;;;4955085;29;19906;-78
2021/09/19 06:50:27;;;;;;;;;;;17.10;99.90;;;;;;4955459;28;20027;-78
2021/09/19 06:52:53;;;;;;;12.60;2.85;;;17.20;99.90;;;;;;4954976;28;19918;-78
2021/09/19 06:55:19;;;;;;;;;;;17.10;99.90;;;;;;4938144;29;20024;-78
2021/09/19 06:57:46;;;;;;;12.13;2.30;;;17.30;99.90;;;;;;4954943;28;19956;-78
2021/09/19 07:00:13;;;;;;;14.70;2.42;;;17.40;99.90;;;;;;4955000;29;20116;-77
2021/09/19 07:02:39;;;;;;;10.98;1.80;;;17.40;99.90;;;;;;4954855;29;20024;-78
2021/09/19 07:05:05;;;;;;;12.05;2.28;;;17.40;99.90;;;;;;4954964;29;20023;-78
2021/09/19 07:07:30;;;;;;;8.15;1.60;;;17.40;99.90;;;;;;4955110;29;20023;-78
2021/09/19 07:09:56;;;;;;;11.55;2.20;;;17.60;99.90;;;;;;4954878;29;20030;-78
2021/09/19 07:12:22;;;;;;;;;;;17.70;99.90;;;;;;4937981;29;20024;-78
2021/09/19 07:14:47;;;;;;;12.15;1.88;;;17.70;99.90;;;;;;4954776;29;19910;-78
2021/09/19 07:17:14;;;;;;;;;;;17.70;99.90;;;;;;4955731;29;20109;-78
2021/09/19 07:19:39;;;;;;;9.07;2.17;;;18.00;99.90;;;;;;4954810;29;19913;-78
2021/09/19 07:22:05;;;;;;;9.20;1.60;;;17.90;99.90;;;;;;4937565;29;20023;-78
2021/09/19 07:24:31;;;;;;;;;;;18.10;99.90;;;;;;4955221;28;20083;-78
2021/09/19 07:26:56;;;;;;;9.68;2.25;;;18.10;99.90;;;;;;4954736;29;19906;-78
2021/09/19 07:29:22;;;;;;;;;;;18.20;99.90;;;;;;4956864;28;20476;-78
2021/09/19 07:31:51;;;;;;;9.60;1.83;;;18.00;99.90;;;;;;4958398;28;20291;-78
2021/09/19 07:34:17;;;;;;;7.18;1.75;;;18.00;99.90;;;;;;4958535;29;20019;-78
2021/09/19 07:36:46;;;;;;;9.02;1.85;;;17.90;99.90;;;;;;4940969;29;20074;-78
2021/09/19 07:39:12;;;;;;;10.40;2.58;;;18.20;99.90;;;;;;4958165;29;20020;-78
2021/09/19 07:41:38;;;;;;;7.28;1.60;;;18.10;99.90;;;;;;4958040;29;20027;-78
2021/09/19 07:44:04;;;;;;;16.58;2.20;;;18.20;99.90;;;;;;4958289;28;20447;-78
2021/09/19 07:46:30;;;;;;;12.98;2.20;;;18.30;99.90;;;;;;4958416;28;20400;-78
2021/09/19 07:48:56;;;;;;;13.23;2.60;;;18.30;99.90;;;;;;4940723;29;20027;-78
2021/09/19 07:51:23;;;;;;;15.25;2.78;;;18.40;99.90;;;;;;4940767;29;20059;-78
2021/09/19 07:53:50;;;;;;;10.90;2.40;;;18.50;99.90;;;;;;4958339;28;20058;-78
2021/09/19 07:56:16;;;;;;;17.75;2.72;;;18.60;99.90;;;;;;4956500;29;20035;-78
2021/09/19 07:58:42;;;;;;;12.82;2.92;;;18.50;99.90;;;;;;4957407;29;20595;-78
2021/09/19 08:01:08;;;;;;;19.65;3.17;;;18.30;99.90;;;;;;4957706;28;20480;-78
2021/09/19 08:03:34;;;;;;;17.45;2.78;;;18.50;99.90;;;;;;4957757;29;20032;-78
2021/09/19 08:05:59;;;;;;;12.27;2.53;;;18.60;99.90;;;;;;4957737;28;20369;-78
2021/09/19 08:08:25;;;;;;;10.25;2.05;;;18.70;99.90;;;;;;4957626;28;20028;-78
2021/09/19 08:10:51;;;;;;;15.70;2.45;;;18.70;99.90;;;;;;4957624;29;20059;-78
2021/09/19 08:13:17;;;;;;;11.63;2.20;;;18.70;99.90;;;;;;4957465;29;20028;-78
2021/09/19 08:15:42;;;;;;;19.05;3.03;;;18.60;99.90;;;;;;4957922;29;20046;-78
2021/09/19 08:18:08;;;;;;;12.65;2.10;;;18.80;99.90;;;;;;4957594;28;20027;-78
2021/09/19 08:20:34;;;;;;;10.30;2.30;;;19.00;99.90;;;;;;4957576;29;20023;-78
2021/09/19 08:23:00;;;;;;;13.73;2.20;;;19.10;99.90;;;;;;4940111;29;20061;-78
2021/09/19 08:25:25;;;;;;;15.55;2.17;;;19.30;99.90;;;;;;4957529;28;20028;-78
2021/09/19 08:27:52;;;;;;;14.52;2.20;;;19.30;99.90;;;;;;4957460;29;20023;-80
2021/09/19 08:30:18;;;;;;;15.23;2.40;;;19.40;99.90;;;;;;4957253;28;20035;-80
2021/09/19 08:32:44;;;;;;;12.32;2.22;;;20.00;99.90;;;;;;4957102;28;20518;-80
2021/09/19 08:35:12;;;;;;;11.52;2.03;;;21.00;99.90;;;;;;4957181;28;20027;-79
2021/09/19 08:37:39;;;;;;;12.57;2.40;;;21.10;99.90;;;;;;4957143;28;20031;-79
2021/09/19 08:40:07;;;;;;;14.60;2.53;;;21.20;99.90;;;;;;4939336;29;20034;-78
2021/09/19 08:42:33;;;;;;;11.38;2.00;;;21.20;99.90;;;;;;4956984;28;20024;-79
2021/09/19 08:44:59;;;;;;;9.02;1.92;;;21.00;99.90;;;;;;4956957;29;20050;-79
2021/09/19 08:47:29;;;;;;;9.70;1.90;;;21.30;99.90;;;;;;4956911;29;20050;-79
2021/09/19 08:49:55;;;;;;;9.02;2.13;;;22.40;99.50;;;;;;4956870;29;20023;-79
2021/09/19 08:52:20;;;;;;;8.75;1.90;;;23.40;97.10;;;;;;4956837;28;20079;-79
2021/09/19 08:54:46;;;;;;;10.18;2.25;;;24.30;96.10;;;;;;4956601;28;20034;-79
2021/09/19 08:57:12;;;;;;;6.30;1.80;;;24.80;93.90;;;;;;4956534;28;20047;-79
2021/09/19 08:59:45;;;;;;;6.88;1.80;;;25.40;92.30;;;;;;4956724;29;20032;-79
2021/09/19 09:02:14;;;;;;;9.10;2.05;;;26.20;91.50;;;;;;4956869;28;20051;-79
2021/09/19 09:04:40;;;;;;;7.35;1.90;;;26.40;90.00;;;;;;4939423;29;20050;-79
2021/09/19 09:07:05;;;;;;;7.13;1.55;;;25.40;90.20;;;;;;4939350;29;20027;-79
2021/09/19 09:09:31;;;;;;;9.23;1.90;;;26.00;90.90;;;;;;4956559;28;20035;-79
2021/09/19 09:12:08;;;;;;;6.85;1.70;;;26.50;88.20;;;;;;4956444;29;20030;-79
2021/09/19 09:14:54;;;;;;;9.65;2.00;;;27.80;85.30;;;;;;4956750;29;20101;-79
2021/09/19 09:17:26;;;;;;;9.57;2.00;;;27.60;83.30;;;;;;4938905;29;20092;-79
2021/09/19 09:19:55;;;;;;;8.63;2.15;;;28.80;80.20;;;;;;4938837;29;20024;-79
2021/09/19 09:22:23;;;;;;;8.82;2.30;;;29.40;75.70;;;;;;4956271;28;20034;-80
2021/09/19 09:25:06;;;;;;;6.32;1.75;;;29.50;74.80;;;;;;4938964;29;20054;-80
2021/09/19 09:27:41;;;;;;;10.10;2.20;;;31.20;70.90;;;;;;4956248;28;20031;-80
2021/09/19 09:30:15;;;;;;;9.70;1.98;;;32.40;65.80;;;;;;4956222;29;20027;-80
2021/09/19 09:33:01;;;;;;;5.97;1.65;;;32.80;63.40;;;;;;4956040;29;20019;-80
2021/09/19 09:35:40;;;;;;;7.13;1.95;;;31.80;62.40;;;;;;4938588;29;20023;-80
2021/09/19 09:38:23;;;;;;;5.88;1.80;;;31.80;62.40;;;;;;4956067;29;20024;-80
2021/09/19 09:40:50;;;;;;;;;;;32.00;60.90;;;;;;4956327;29;20559;-80
2021/09/19 09:43:18;;;;;;;6.20;1.60;;;32.30;60.20;;;;;;4955943;29;20001;-80
2021/09/19 09:45:46;;;;;;;8.15;2.10;;;32.80;60.00;;;;;;4955865;29;20480;-80
2021/09/19 09:48:41;;;;;;;5.78;2.00;;;32.60;59.10;;;;;;4938674;29;20106;-80
2021/09/19 09:51:23;;;;;;;6.72;2.10;;;32.90;56.90;;;;;;4955976;29;20530;-80
2021/09/19 09:54:00;;;;;;;10.40;2.80;;;34.00;55.60;;;;;;4955773;29;20031;-80
2021/09/19 09:56:26;;;;;;;7.22;2.80;;;36.90;53.10;;;;;;4955902;29;20103;-81
2021/09/19 09:58:53;;;;;;;6.03;2.40;;;39.10;49.70;;;;;;4955261;28;20619;-81
2021/09/19 10:01:20;;;;;;;6.90;3.40;;;38.10;48.40;;;;;;4955626;28;20520;-81
2021/09/19 10:03:46;;;;;;;5.85;2.70;;;40.80;45.10;;;;;;4955586;28;20511;-81
2021/09/19 10:06:13;;;;;;;7.10;3.50;;;39.30;46.30;;;;;;4955543;28;20436;-81
2021/09/19 10:08:41;;;;;;;8.13;3.28;;;40.40;43.90;;;;;;4955497;28;20019;-81
2021/09/19 10:11:07;;;;;;;7.82;3.30;;;39.50;43.60;;;;;;4938250;29;20491;-81
2021/09/19 10:13:35;;;;;;;8.00;3.83;;;39.70;44.70;;;;;;4938184;29;20023;-81
2021/09/19 10:16:01;;;;;;;6.88;3.60;;;41.30;43.10;;;;;;4938216;29;20028;-82
2021/09/19 10:18:28;;;;;;;9.27;4.07;;;40.20;42.70;;;;;;4938141;29;20510;-82
2021/09/19 10:20:54;;;;;;;7.88;4.82;;;41.20;42.90;;;;;;4938164;29;20090;-82
2021/09/19 10:23:21;;;;;;;10.70;5.05;;;43.00;41.10;;;;;;4955448;29;20071;-82
2021/09/19 10:25:51;;;;;;;8.25;4.32;;;41.60;40.40;;;;;;4938108;29;20035;-82
2021/09/19 10:28:33;;;;;;;8.40;4.63;;;42.10;41.00;;;;;;4955269;29;20051;-81
2021/09/19 10:31:11;;;;;;;7.78;4.10;;;41.70;40.10;;;;;;4937778;29;20023;-82
2021/09/19 10:33:40;;;;;;;10.15;4.45;;;42.60;40.90;;;;;;4955371;28;20035;-82
2021/09/19 10:36:28;;;;;;;8.13;3.25;;;40.00;39.30;;;;;;4937655;29;20031;-81
2021/09/19 10:39:13;;;;;;;6.68;3.00;;;40.20;42.70;;;;;;4937682;29;20069;-81
2021/09/19 10:42:15;;;;;;;7.78;3.60;;;38.90;42.10;;;;;;4955609;29;20058;-81
2021/09/19 10:44:49;;;;;;;7.30;3.30;;;42.30;41.10;;;;;;4955122;28;20027;-81
2021/09/19 10:47:42;;;;;;;7.85;3.08;;;41.20;41.00;;;;;;4937827;29;20403;-82
2021/09/19 10:50:27;;;;;;;7.18;3.03;;;39.40;40.70;;;;;;4955240;29;20078;-81
2021/09/19 10:52:56;;;;;;;7.80;4.38;;;40.80;41.50;;;;;;4955141;29;20400;-82
2021/09/19 10:55:24;;;;;;;5.57;2.25;;;42.90;38.80;;;;;;4937771;29;20488;-81
2021/09/19 10:58:05;;;;;;;8.70;3.05;;;39.40;41.30;;;;;;4954810;28;20063;-81
2021/09/19 11:00:33;;;;;;;6.78;3.40;;;38.90;41.70;;;;;;4937531;29;20038;-81
2021/09/19 11:03:08;;;;;;;8.60;3.70;;;40.70;41.70;;;;;;4954910;28;20031;-82
2021/09/19 11:05:44;;;;;;;5.95;1.92;;;41.30;39.80;;;;;;4941119;29;20027;-81
2021/09/19 11:08:16;;;;;;;5.80;2.10;;;35.40;44.30;;;;;;4958955;29;20034;-81
2021/09/19 11:10:45;;;;;;;6.82;3.13;;;37.00;45.50;;;;;;4941234;29;20081;-81
2021/09/19 11:13:42;;;;;;;9.02;4.50;;;41.90;41.60;;;;;;4958661;29;20044;-82
2021/09/19 11:16:18;;;;;;;6.03;3.38;;;43.90;39.70;;;;;;4941118;29;20027;-81
2021/09/19 11:18:51;;;;;;;8.93;4.40;;;41.40;38.50;;;;;;4958533;29;20031;-82
2021/09/19 11:21:33;;;;;;;9.05;4.78;;;42.00;39.90;;;;;;4958444;29;20443;-82
2021/09/19 11:24:04;;;;;;;7.07;3.90;;;42.60;39.10;;;;;;4958571;29;20031;-81
2021/09/19 11:26:57;;;;;;;7.28;2.58;;;42.80;39.20;;;;;;4958719;29;20098;-81
2021/09/19 11:29:25;;;;;;;5.75;2.10;;;40.10;40.80;;;;;;4955801;29;20035;-80
2021/09/19 11:31:53;;;;;;;4.53;1.60;;;37.90;42.60;;;;;;4958545;28;20387;-80
2021/09/19 11:34:22;;;;;;;6.53;1.90;;;35.90;44.60;;;;;;4958232;28;20030;-80
2021/09/19 11:36:52;;;;;;;7.20;2.40;;;36.00;44.90;;;;;;4940941;29;20408;-81
2021/09/19 11:39:19;;;;;;;6.13;2.60;;;40.90;42.50;;;;;;4958263;29;20033;-81
2021/09/19 11:41:46;;;;;;;6.82;1.92;;;41.40;40.80;;;;;;4958164;28;20503;-81
2021/09/19 11:44:14;;;;;;;6.25;1.90;;;37.30;42.50;;;;;;4940761;29;20492;-80
2021/09/19 11:46:48;;;;;;;6.00;2.35;;;35.90;45.70;;;;;;4940819;29;20019;-81
2021/09/19 11:49:16;;;;;;;7.50;3.50;;;40.10;42.80;;;;;;4940509;29;20050;-82
2021/09/19 11:51:43;;;;;;;7.85;5.13;;;43.50;39.40;;;;;;4958011;28;20024;-82
2021/09/19 11:54:14;;;;;;;7.68;4.03;;;46.20;38.20;;;;;;4957993;28;20039;-82
2021/09/19 11:56:43;;;;;;;5.65;2.40;;;43.80;37.50;;;;;;4958056;29;20035;-81
2021/09/19 11:59:15;;;;;;;7.10;2.47;;;40.60;39.90;;;;;;4940135;29;20047;-82
2021/09/19 12:01:42;;;;;;;6.90;2.58;;;41.10;40.20;;;;;;4957988;28;20555;-81
2021/09/19 12:04:10;;;;;;;9.18;3.05;;;41.20;42.10;;;;;;4957884;29;20046;-82
2021/09/19 12:06:39;;;;;;;7.60;2.90;;;43.40;39.30;;;;;;4957935;28;20070;-82
2021/09/19 12:09:15;;;;;;;5.82;2.30;;;42.60;38.10;;;;;;4940647;29;20053;-81
2021/09/19 12:11:47;;;;;;;5.70;1.75;;;38.70;40.80;;;;;;4957663;29;20102;-81
2021/09/19 12:14:23;;;;;;;5.68;1.70;;;36.00;43.90;;;;;;4940136;29;20035;-81
2021/09/19 12:17:15;;;;;;;4.15;1.70;;;34.50;45.10;;;;;;4956522;28;20023;-80
2021/09/19 12:19:45;;;;;;;5.40;1.50;;;34.70;45.60;;;;;;4938450;29;20407;-81
2021/09/19 12:22:19;;;;;;;5.93;1.77;;;32.80;47.70;;;;;;4957507;29;20035;-80
2021/09/19 12:24:50;;;;;;;6.70;1.87;;;31.90;49.30;;;;;;4939801;29;20038;-79
2021/09/19 12:27:25;;;;;;;7.18;1.67;;;31.20;50.30;;;;;;4957392;29;20256;-80
2021/09/19 12:30:13;;;;;;;5.85;1.58;;;30.50;51.90;;;;;;4957742;29;20055;-80
2021/09/19 12:32:49;;;;;;;5.55;1.90;;;32.40;51.30;;;;;;4957516;29;20027;-80
2021/09/19 12:35:30;;;;;;;7.28;2.10;;;36.30;46.50;;;;;;4957228;29;20039;-81
2021/09/19 12:37:59;;;;;;;7.47;1.90;;;38.30;44.70;;;;;;4939946;29;20023;-81
2021/09/19 12:40:26;;;;;;;5.32;1.88;;;34.60;45.70;;;;;;4957237;28;20038;-81
2021/09/19 12:43:03;;;;;;;6.10;2.20;;;35.50;49.00;;;;;;4956995;28;20365;-81
2021/09/19 12:45:29;;;;;;;7.97;2.80;;;37.80;46.50;;;;;;4939517;29;20023;-81
2021/09/19 12:47:56;;;;;;;7.65;3.50;;;42.60;40.90;;;;;;4957117;29;20049;-82
2021/09/19 12:50:24;;;;;;;8.07;4.40;;;45.70;38.90;;;;;;4939672;29;20439;-82
2021/09/19 12:52:55;;;;;;;7.75;4.85;;;46.40;37.90;;;;;;4939603;29;20023;-81
2021/09/19 12:55:21;;;;;;;8.07;4.53;;;46.70;36.80;;;;;;4957123;29;20472;-81
2021/09/19 12:57:49;;;;;;;8.80;5.00;;;46.00;37.50;;;;;;4956596;28;20466;-82
2021/09/19 13:00:18;;;;;;;8.25;4.57;;;45.50;36.80;;;;;;4956735;28;20027;-82
2021/09/19 13:03:05;;;;;;;8.60;4.10;;;43.80;36.20;;;;;;4956610;29;20035;-81
2021/09/19 13:05:32;;;;;;;5.75;2.20;;;42.50;38.30;;;;;;4939102;29;20031;-81
2021/09/19 13:07:59;;;;;;;5.25;1.77;;;39.40;39.90;;;;;;4939338;29;20023;-81